Time;durP1;ratioP1;P1;durP2;ratioP2;P2;SDS_P1;SDS_P2;PMS_P1;PMS_P2;Temp;Humidity;BMP_temperature;BMP_pressure;BME280_temperature;BME280_humidity;BME280_pressure;Samples;Min_cycle;Max_cycle;Signal;HPM_P1;HPM_P2
2021/08/08 00:01:52;;;;;;;3.70;2.77;;;;;;;16.03;100.00;99787.31;4988479;28;20319;-72
2021/08/08 00:04:18;;;;;;;2.60;2.40;;;;;;;16.02;100.00;99788.28;4989665;28;20674;-73
2021/08/08 00:06:44;;;;;;;2.87;2.57;;;;;;;15.98;100.00;99788.56;4988843;28;20208;-72
2021/08/08 00:09:11;;;;;;;2.50;2.30;;;;;;;15.96;100.00;99788.66;4989644;28;20396;-72
2021/08/08 00:11:38;;;;;;;3.30;3.00;;;;;;;15.95;100.00;99778.22;4974512;28;20244;-73
2021/08/08 00:14:05;;;;;;;5.07;3.27;;;;;;;15.93;100.00;99790.63;4988715;28;20208;-72
2021/08/08 00:16:32;;;;;;;3.67;2.93;;;;;;;15.90;100.00;99789.88;4986711;28;20222;-71
2021/08/08 00:18:58;;;;;;;2.63;2.43;;;;;;;15.85;100.00;99799.81;4987578;28;20693;-71
2021/08/08 00:21:25;;;;;;;2.90;2.70;;;;;;;15.85;100.00;99794.56;4985145;28;20732;-71
2021/08/08 00:23:51;;;;;;;3.77;2.90;;;;;;;15.82;100.00;99796.53;4985168;28;20220;-71
2021/08/08 00:26:18;;;;;;;4.17;3.03;;;;;;;15.81;100.00;99785.19;4995214;28;20201;-72
2021/08/08 00:28:48;;;;;;;3.47;2.53;;;;;;;15.81;100.00;99792.19;4986799;28;20203;-72
2021/08/08 00:31:16;;;;;;;3.40;2.73;;;;;;;15.77;100.00;99788.91;4985838;28;20217;-72
2021/08/08 00:33:42;;;;;;;2.50;2.30;;;;;;;15.76;100.00;99794.28;4982922;28;20221;-72
2021/08/08 00:36:09;;;;;;;2.63;2.40;;;;;;;15.73;100.00;99797.06;4992294;28;20706;-72
2021/08/08 00:38:36;;;;;;;5.77;2.43;;;;;;;15.70;100.00;99793.66;4986584;28;20204;-72
2021/08/08 00:41:03;;;;;;;3.10;2.40;;;;;;;15.67;100.00;99793.88;4975062;28;20213;-71
2021/08/08 00:43:32;;;;;;;3.23;2.80;;;;;;;15.65;100.00;99797.53;4969830;28;20251;-72
2021/08/08 00:46:01;;;;;;;2.50;2.27;;;;;;;15.62;100.00;99798.56;4967488;28;20688;-71
2021/08/08 00:48:27;;;;;;;2.80;2.60;;;;;;;15.59;100.00;99800.53;4975416;28;20222;-72
2021/08/08 00:50:54;;;;;;;2.97;2.60;;;;;;;15.56;100.00;99798.91;4982801;28;20296;-72
2021/08/08 00:53:31;;;;;;;2.80;2.57;;;;;;;15.55;100.00;99802.50;4985277;28;20303;-72
2021/08/08 00:56:01;;;;;;;2.60;2.40;;;;;;;15.55;100.00;99796.38;4969836;28;20231;-72
2021/08/08 00:58:30;;;;;;;2.53;2.23;;;;;;;15.58;100.00;99789.16;4991407;28;20197;-72
2021/08/08 01:01:04;;;;;;;2.50;2.30;;;;;;;15.58;100.00;99797.03;4993752;28;20722;-72
2021/08/08 01:03:31;;;;;;;3.60;2.07;;;;;;;15.57;100.00;99794.53;4970281;28;20230;-73
2021/08/08 01:06:06;;;;;;;4.37;2.60;;;;;;;15.55;100.00;99792.00;4989770;28;20203;-72
2021/08/08 01:08:33;;;;;;;2.53;2.30;;;;;;;15.53;100.00;99789.44;4993575;28;20211;-72
2021/08/08 01:11:02;;;;;;;3.20;2.30;;;;;;;15.49;100.00;99795.81;5008948;28;20205;-72
2021/08/08 01:13:32;;;;;;;2.67;2.23;;;;;;;15.49;100.00;99802.84;5007868;28;20222;-72
2021/08/08 01:15:59;;;;;;;2.50;2.30;;;;;;;15.48;100.00;99801.19;5007176;28;20204;-72
2021/08/08 01:18:28;;;;;;;2.20;1.90;;;;;;;15.42;100.00;99802.34;5007540;28;20206;-72
2021/08/08 01:20:58;;;;;;;5.10;1.90;;;;;;;15.39;100.00;99810.44;4986962;28;20299;-72
2021/08/08 01:23:26;;;;;;;3.03;2.37;;;;;;;15.38;100.00;99810.53;5006130;28;20227;-72
2021/08/08 01:25:55;;;;;;;2.70;2.27;;;;;;;15.35;100.00;99816.78;4996891;28;20579;-72
2021/08/08 01:28:21;;;;;;;2.17;1.97;;;;;;;15.33;100.00;99814.25;4992260;28;20213;-72
2021/08/08 01:30:48;;;;;;;2.40;2.00;;;;;;;15.30;100.00;99810.97;4991518;28;20325;-72
2021/08/08 01:33:15;;;;;;;2.37;1.80;;;;;;;15.27;100.00;99804.13;5004785;28;20283;-72
2021/08/08 01:36:05;;;;;;;2.10;1.90;;;;;;;15.24;100.00;99809.53;5007310;28;20334;-72
2021/08/08 01:38:37;;;;;;;2.30;2.10;;;;;;;15.20;100.00;99815.91;4991236;28;20706;-72
2021/08/08 01:41:11;;;;;;;2.13;1.93;;;;;;;15.17;100.00;99810.00;5011707;28;20245;-72
2021/08/08 01:44:36;;;;;;;2.00;1.80;;;;;;;15.14;100.00;99806.63;5005794;28;20235;-72
2021/08/08 01:47:07;;;;;;;2.10;1.90;;;;;;;15.16;100.00;99809.13;5006261;28;20210;-72
2021/08/08 01:49:35;;;;;;;2.10;1.90;;;;;;;15.14;100.00;99818.88;5010204;28;20572;-72
2021/08/08 01:52:06;;;;;;;1.83;1.67;;;;;;;15.11;100.00;99808.59;5008998;28;20314;-72
2021/08/08 01:54:39;;;;;;;3.03;2.30;;;;;;;15.08;100.00;99814.00;4991777;28;20213;-72
2021/08/08 01:57:14;;;;;;;2.07;1.87;;;;;;;15.08;100.00;99814.84;5008005;28;20242;-72
2021/08/08 01:59:42;;;;;;;3.57;1.83;;;;;;;15.01;100.00;99812.66;4991729;28;20201;-72
2021/08/08 02:02:11;;;;;;;3.47;1.83;;;;;;;15.02;100.00;99815.22;4990470;28;20258;-72
2021/08/08 02:04:40;;;;;;;2.37;2.17;;;;;;;14.96;100.00;99813.75;4995030;28;20303;-72
2021/08/08 02:07:14;;;;;;;2.20;1.83;;;;;;;14.94;100.00;99817.41;4991952;28;20296;-72
2021/08/08 02:10:28;;;;;;;2.30;1.90;;;;;;;14.91;100.00;99807.09;5007609;28;20247;-72
2021/08/08 02:12:57;;;;;;;1.73;1.63;;;;;;;14.88;100.00;99802.88;5005390;28;20588;-72
2021/08/08 02:15:24;;;;;;;3.70;2.20;;;;;;;14.89;100.00;99807.19;4991636;28;20676;-72
2021/08/08 02:17:57;;;;;;;2.73;1.80;;;;;;;14.82;100.00;99813.72;4988166;28;20222;-72
2021/08/08 02:20:28;;;;;;;2.57;2.10;;;;;;;14.84;100.00;99808.38;4988830;28;20212;-72
2021/08/08 02:23:00;;;;;;;3.73;1.90;;;;;;;14.77;100.00;99824.47;5005970;28;20669;-72
2021/08/08 02:25:29;;;;;;;2.23;2.00;;;;;;;14.77;100.00;99818.38;4990689;28;20211;-72
2021/08/08 02:27:56;;;;;;;1.97;1.70;;;;;;;14.73;100.00;99822.09;4999722;28;20208;-72
2021/08/08 02:30:32;;;;;;;2.37;2.17;;;;;;;14.66;100.00;99818.97;4998326;28;20242;-73
2021/08/08 02:32:59;;;;;;;2.07;1.80;;;;;;;14.69;100.00;99829.31;4997158;28;20310;-71
2021/08/08 02:35:26;;;;;;;2.87;2.13;;;;;;;14.65;100.00;99829.56;4994689;28;20236;-73
2021/08/08 02:37:52;;;;;;;2.63;2.07;;;;;;;14.65;100.00;99832.16;5020578;28;20248;-73
2021/08/08 02:40:20;;;;;;;2.10;1.90;;;;;;;14.65;100.00;99832.16;4999464;28;20208;-71
2021/08/08 02:42:48;;;;;;;3.43;1.83;;;;;;;14.60;100.00;99842.06;4997161;28;20745;-73
2021/08/08 02:45:14;;;;;;;3.80;2.10;;;;;;;14.58;100.00;99848.28;5012527;28;20224;-73
2021/08/08 02:47:42;;;;;;;2.20;2.00;;;;;;;14.58;100.00;99847.41;4997369;28;20201;-73
2021/08/08 02:50:12;;;;;;;1.80;1.70;;;;;;;14.50;100.00;99855.66;5008306;28;20274;-71
2021/08/08 02:52:41;;;;;;;2.80;2.23;;;;;;;14.43;100.00;99854.31;4992034;28;20242;-72
2021/08/08 02:55:10;;;;;;;2.30;1.90;;;;;;;14.43;100.00;99848.22;5007013;28;20251;-72
2021/08/08 02:57:40;;;;;;;1.80;1.70;;;;;;;14.41;100.00;99858.78;4990298;28;20221;-72
2021/08/08 03:00:07;;;;;;;2.30;2.10;;;;;;;14.37;100.00;99854.63;4989406;28;20633;-72
2021/08/08 03:02:35;;;;;;;2.00;1.80;;;;;;;14.31;100.00;99874.16;5004366;28;20232;-72
2021/08/08 03:05:06;;;;;;;2.10;1.70;;;;;;;14.28;100.00;99883.97;4989579;28;20721;-72
2021/08/08 03:07:33;;;;;;;4.90;2.00;;;;;;;14.30;100.00;99895.22;4988864;28;20207;-71
2021/08/08 03:09:59;;;;;;;1.70;1.60;;;;;;;14.25;100.00;99900.72;4992608;28;20235;-73
2021/08/08 03:12:27;;;;;;;2.67;2.20;;;;;;;14.28;100.00;99899.69;4987631;28;20702;-72
2021/08/08 03:14:53;;;;;;;2.93;2.07;;;;;;;14.24;100.00;99901.63;4988455;28;20291;-72
2021/08/08 03:17:20;;;;;;;2.97;2.30;;;;;;;14.23;100.00;99899.97;4988625;28;20212;-72
2021/08/08 03:19:47;;;;;;;2.40;2.07;;;;;;;14.24;100.00;99901.63;4980351;28;20680;-72
2021/08/08 03:22:16;;;;;;;2.27;2.07;;;;;;;14.27;100.00;99908.50;4991444;28;20239;-71
2021/08/08 03:24:43;;;;;;;2.87;1.70;;;;;;;14.21;100.00;99907.03;5001826;28;20208;-73
2021/08/08 03:27:10;;;;;;;2.10;1.83;;;;;;;14.22;100.00;99898.25;5007738;28;20250;-73
2021/08/08 03:29:40;;;;;;;2.60;2.30;;;;;;;14.23;100.00;99917.44;5003912;28;20691;-73
2021/08/08 03:32:07;;;;;;;2.73;2.00;;;;;;;14.22;100.00;99931.50;5004112;28;20294;-72
2021/08/08 03:34:33;;;;;;;2.87;2.10;;;;;;;14.24;100.00;99938.34;5005206;28;20208;-72
2021/08/08 03:37:00;;;;;;;4.90;1.90;;;;;;;14.23;100.00;99933.19;5009989;28;20228;-73
2021/08/08 03:39:28;;;;;;;4.07;2.00;;;;;;;14.23;100.00;99935.81;4991644;28;20200;-72
2021/08/08 03:41:55;;;;;;;2.13;1.93;;;;;;;14.23;100.00;99941.91;5005047;28;20220;-72
2021/08/08 03:44:22;;;;;;;2.90;2.20;;;;;;;14.24;100.00;99943.59;4997740;28;20211;-71
2021/08/08 03:46:49;;;;;;;4.67;2.07;;;;;;;14.27;100.00;99939.97;5007072;28;20827;-73
2021/08/08 03:49:16;;;;;;;5.37;2.57;;;;;;;14.29;100.00;99930.25;4988805;28;20623;-72
2021/08/08 03:51:44;;;;;;;2.40;2.20;;;;;;;14.28;100.00;99936.41;5003568;28;20197;-72
2021/08/08 03:54:10;;;;;;;2.27;2.07;;;;;;;14.30;100.00;99932.78;4993152;28;20751;-72
2021/08/08 03:56:38;;;;;;;2.47;2.07;;;;;;;14.32;100.00;99933.56;5003159;28;20201;-72
2021/08/08 03:59:05;;;;;;;2.27;2.07;;;;;;;14.33;100.00;99935.25;4988253;28;20201;-73
2021/08/08 04:01:33;;;;;;;3.23;2.60;;;;;;;14.37;100.00;99928.91;4989450;28;20198;-72
2021/08/08 04:04:00;;;;;;;2.57;2.37;;;;;;;14.40;100.00;99933.16;5006232;28;20933;-72
2021/08/08 04:06:27;;;;;;;2.90;2.60;;;;;;;14.44;100.00;99941.69;4996747;28;20236;-72
2021/08/08 04:08:54;;;;;;;3.67;2.27;;;;;;;14.50;100.00;99955.34;4989594;28;20222;-72
2021/08/08 04:11:21;;;;;;;3.17;2.27;;;;;;;14.58;100.00;99950.56;4984075;28;20234;-73
2021/08/08 04:13:49;;;;;;;3.23;2.40;;;;;;;14.64;100.00;99944.13;4992325;28;20228;-73
2021/08/08 04:16:16;;;;;;;3.30;2.70;;;;;;;14.73;100.00;99946.25;4990604;28;20207;-72
2021/08/08 04:18:45;;;;;;;4.57;2.80;;;;;;;14.79;100.00;99959.97;4990527;28;20244;-73
2021/08/08 04:21:12;;;;;;;5.47;2.57;;;;;;;14.88;100.00;99975.22;5001007;28;20205;-73
2021/08/08 04:23:40;;;;;;;5.17;2.83;;;;;;;14.94;100.00;99975.75;4989176;28;20701;-73
2021/08/08 04:26:07;;;;;;;3.30;2.40;;;;;;;14.99;100.00;99978.13;5004784;28;20208;-73
2021/08/08 04:28:39;;;;;;;3.23;2.73;;;;;;;15.04;100.00;99973.47;5004966;28;20287;-72
2021/08/08 04:31:07;;;;;;;2.43;2.23;;;;;;;15.14;100.00;99981.66;4996031;28;20649;-72
2021/08/08 04:33:35;;;;;;;4.57;2.17;;;;;;;15.19;100.00;99976.19;5007035;28;20228;-72
2021/08/08 04:36:01;;;;;;;3.77;2.03;;;;;;;15.22;100.00;99984.72;5004880;28;20615;-73
2021/08/08 04:38:28;;;;;;;3.50;1.83;;;;;;;15.22;100.00;99981.25;4989958;28;20225;-72
2021/08/08 04:41:16;;;;;;;2.40;2.20;;;;;;;15.24;100.00;99987.28;5006116;28;20417;-72
2021/08/08 04:44:14;;;;;;;3.60;2.20;;;;;;;15.26;100.00;99988.03;5007325;28;20241;-73
2021/08/08 04:46:51;;;;;;;3.27;1.73;;;;;;;15.25;100.00;99997.69;4986819;28;20213;-73
2021/08/08 04:49:33;;;;;;;1.90;1.73;;;;;;;15.28;100.00;99994.88;5012842;28;20779;-73
2021/08/08 04:52:15;;;;;;;2.00;1.67;;;;;;;15.30;100.00;99982.53;5003773;28;20593;-72
2021/08/08 04:54:55;;;;;;;2.77;1.63;;;;;;;15.37;100.00;99990.88;5006168;28;20206;-72
2021/08/08 04:57:43;;;;;;;3.53;1.40;;;;;;;15.40;100.00;100005.66;5007658;28;20720;-73
2021/08/08 05:00:27;;;;;;;1.87;1.60;;;;;;;15.49;100.00;100021.72;4987890;28;20608;-72
2021/08/08 05:03:00;;;;;;;1.77;1.67;;;;;;;15.52;100.00;100031.22;5005081;28;20235;-73
2021/08/08 05:05:46;;;;;;;2.07;1.47;;;;;;;15.55;100.00;100027.56;4987625;28;20210;-72
2021/08/08 05:08:15;;;;;;;2.03;1.80;;;;;;;15.55;100.00;100030.19;5013276;28;20204;-72
2021/08/08 05:10:41;;;;;;;1.83;1.63;;;;;;;15.49;100.00;100029.59;4992236;28;20907;-74
2021/08/08 05:13:13;;;;;;;2.50;1.57;;;;;;;15.50;100.00;100012.09;4999454;28;20708;-74
2021/08/08 05:15:40;;;;;;;1.93;1.40;;;;;;;15.49;100.00;100018.25;4986858;28;20243;-73
2021/08/08 05:18:10;;;;;;;3.07;1.50;;;;;;;15.49;100.00;100015.63;5004954;28;20215;-72
2021/08/08 05:20:37;;;;;;;2.10;1.40;;;;;;;15.46;100.00;100010.53;4987478;28;20194;-72
2021/08/08 05:23:05;;;;;;;2.03;1.33;;;;;;;15.45;100.00;100004.44;5004265;28;20293;-72
2021/08/08 05:25:31;;;;;;;2.60;1.50;;;;;;;15.44;100.00;100007.16;5003773;28;20202;-73
2021/08/08 05:27:59;;;;;;;2.27;1.50;;;;;;;15.44;100.00;100007.16;5005459;28;20696;-72
2021/08/08 05:30:27;;;;;;;1.93;1.27;;;;;;;15.47;100.00;100025.38;5003913;28;20207;-73
2021/08/08 05:32:53;;;;;;;1.43;1.33;;;;;;;15.58;100.00;100032.66;5003944;28;20781;-73
2021/08/08 05:35:21;;;;;;;1.53;1.43;;;;;;;15.63;100.00;100041.97;4992487;28;20205;-73
2021/08/08 05:37:48;;;;;;;1.50;1.40;;;;;;;15.61;100.00;100045.63;5004460;28;20225;-72
2021/08/08 05:40:15;;;;;;;1.83;1.73;;;;;;;15.58;100.00;100046.63;4983915;28;20205;-72
2021/08/08 05:42:49;;;;;;;1.77;1.37;;;;;;;15.58;100.00;100054.50;4990836;28;20328;-72
2021/08/08 05:45:15;;;;;;;1.93;1.43;;;;;;;15.59;100.00;100063.25;5012742;28;20235;-73
2021/08/08 05:47:42;;;;;;;1.97;1.60;;;;;;;15.58;100.00;100067.66;5004713;28;20884;-72
2021/08/08 05:50:09;;;;;;;2.23;1.60;;;;;;;15.51;100.00;100058.41;5005502;28;20227;-72
2021/08/08 05:52:37;;;;;;;2.77;1.30;;;;;;;15.47;100.00;100056.91;5008704;28;20225;-73
2021/08/08 05:55:04;;;;;;;1.87;1.30;;;;;;;15.50;100.00;100062.00;5014266;28;20846;-72
2021/08/08 05:57:31;;;;;;;1.20;1.03;;;;;;;15.58;100.00;100064.19;5007879;28;20202;-72
2021/08/08 05:59:57;;;;;;;1.47;1.37;;;;;;;15.74;100.00;100054.50;4995513;28;20735;-72
2021/08/08 06:02:24;;;;;;;1.53;1.33;;;;;;;15.86;100.00;100053.84;4988808;28;20220;-73
2021/08/08 06:04:50;;;;;;;2.37;1.40;;;;;;;16.00;100.00;100047.78;5012693;28;20677;-73
2021/08/08 06:07:16;;;;;;;1.60;1.50;;;;;;;16.11;100.00;100054.22;5008259;28;20571;-74
2021/08/08 06:09:44;;;;;;;2.87;1.40;;;;;;;16.22;100.00;100064.97;5014051;28;20212;-72
2021/08/08 06:12:11;;;;;;;3.27;1.30;;;;;;;16.30;100.00;100065.34;5012634;28;20319;-73
2021/08/08 06:14:37;;;;;;;3.87;1.70;;;;;;;16.39;100.00;100067.44;4994454;28;20215;-73
2021/08/08 06:17:04;;;;;;;1.30;1.20;;;;;;;16.50;100.00;100064.19;5009668;28;20203;-72
2021/08/08 06:19:31;;;;;;;1.30;1.20;;;;;;;16.68;100.00;100072.75;4986693;28;20298;-74
2021/08/08 06:21:59;;;;;;;2.17;1.40;;;;;;;16.77;100.00;100069.56;4991619;28;20251;-72
2021/08/08 06:24:25;;;;;;;1.60;1.20;;;;;;;16.85;100.00;100074.41;4995726;28;20248;-73
2021/08/08 06:26:53;;;;;;;2.87;1.40;;;;;;;16.93;100.00;100073.91;5007243;28;20200;-72
2021/08/08 06:29:20;;;;;;;2.13;1.50;;;;;;;16.98;100.00;100069.22;5003434;28;20207;-72
2021/08/08 06:31:47;;;;;;;1.90;1.20;;;;;;;17.07;100.00;100075.72;4993070;28;20678;-72
2021/08/08 06:34:13;;;;;;;1.73;1.20;;;;;;;17.13;100.00;100073.53;5003670;28;20307;-73
2021/08/08 06:36:39;;;;;;;2.10;1.40;;;;;;;17.19;100.00;100069.69;5007882;28;20209;-73
2021/08/08 06:39:06;;;;;;;3.23;1.30;;;;;;;17.31;100.00;100075.97;4993623;28;20224;-73
2021/08/08 06:41:33;;;;;;;1.30;1.10;;;;;;;17.41;100.00;100082.31;4990508;28;20205;-72
2021/08/08 06:44:02;;;;;;;1.70;1.17;;;;;;;17.45;98.46;100083.84;4991457;28;20215;-72
2021/08/08 06:46:28;;;;;;;1.60;1.07;;;;;;;17.56;97.71;100081.34;4992140;28;20231;-73
2021/08/08 06:48:55;;;;;;;3.27;1.40;;;;;;;17.69;99.51;100084.03;4989041;28;20735;-72
2021/08/08 06:51:22;;;;;;;2.20;1.10;;;;;;;17.78;97.10;100095.78;4986041;28;20207;-75
2021/08/08 06:53:48;;;;;;;1.57;1.10;;;;;;;17.83;95.10;100092.88;4989570;28;20704;-71
2021/08/08 06:56:15;;;;;;;2.13;1.00;;;;;;;17.94;96.50;100098.31;5008608;28;20572;-73
2021/08/08 06:58:41;;;;;;;2.20;1.10;;;;;;;17.97;94.33;100096.31;4992072;28;20342;-74
2021/08/08 07:01:09;;;;;;;2.10;1.00;;;;;;;18.09;95.77;100094.66;5006638;28;20200;-73
2021/08/08 07:03:35;;;;;;;1.03;0.93;;;;;;;18.17;92.90;100102.09;5006722;28;20225;-73
2021/08/08 07:06:02;;;;;;;1.10;1.00;;;;;;;18.19;92.02;100094.06;5005744;28;20216;-73
2021/08/08 07:08:29;;;;;;;1.43;1.03;;;;;;;18.22;92.12;100088.59;5003045;28;20196;-74
2021/08/08 07:10:56;;;;;;;1.80;1.10;;;;;;;18.41;92.16;100098.75;4987575;28;20413;-72
2021/08/08 07:13:23;;;;;;;1.83;1.10;;;;;;;18.56;92.38;100103.00;5003163;28;20964;-74
2021/08/08 07:15:49;;;;;;;1.20;0.90;;;;;;;18.57;88.18;100109.13;4987434;28;20205;-72
2021/08/08 07:18:17;;;;;;;1.37;0.90;;;;;;;18.62;89.91;100107.03;5001143;28;20217;-73
2021/08/08 07:20:44;;;;;;;1.10;0.93;;;;;;;18.64;87.78;100116.53;4988338;28;20283;-75
2021/08/08 07:23:11;;;;;;;1.07;0.90;;;;;;;18.71;87.04;100111.66;4991872;28;20319;-73
2021/08/08 07:25:37;;;;;;;1.00;0.90;;;;;;;18.79;85.92;100119.94;5005143;28;20216;-72
2021/08/08 07:28:04;;;;;;;3.17;1.13;;;;;;;18.88;88.29;100116.69;5007881;28;20219;-72
2021/08/08 07:30:32;;;;;;;2.10;0.83;;;;;;;18.92;84.40;100126.06;4991845;28;20551;-73
2021/08/08 07:32:59;;;;;;;2.63;1.20;;;;;;;18.99;84.04;100125.66;4991224;28;20226;-74
2021/08/08 07:35:27;;;;;;;1.73;0.77;;;;;;;19.18;86.13;100128.72;5010882;28;20209;-72
2021/08/08 07:37:54;;;;;;;1.63;0.90;;;;;;;19.29;84.98;100133.22;4989506;28;20205;-72
2021/08/08 07:40:21;;;;;;;1.63;1.47;;;;;;;19.28;81.45;100147.41;5005573;28;20204;-72
2021/08/08 07:43:12;;;;;;;1.63;0.77;;;;;;;19.28;81.37;100148.25;5009438;28;20319;-72
2021/08/08 07:45:45;;;;;;;1.23;0.80;;;;;;;19.39;80.99;100151.94;5007430;28;20216;-74
2021/08/08 07:48:18;;;;;;;0.70;0.70;;;;;;;19.46;79.24;100164.63;5005044;28;20316;-74
2021/08/08 07:50:54;;;;;;;2.13;0.80;;;;;;;19.45;79.26;100168.22;4990285;28;20575;-72
2021/08/08 07:53:40;;;;;;;1.10;1.00;;;;;;;19.50;81.42;100152.03;5002145;28;20232;-72
2021/08/08 07:56:19;;;;;;;0.90;0.80;;;;;;;19.51;77.36;100164.28;4992719;28;20245;-72
2021/08/08 07:58:47;;;;;;;2.27;0.80;;;;;;;19.42;79.17;100164.97;4989368;28;20231;-74
2021/08/08 08:01:14;;;;;;;3.00;1.00;;;;;;;19.51;79.77;100164.28;4991562;28;20296;-72
2021/08/08 08:03:41;;;;;;;0.90;0.90;;;;;;;19.56;79.46;100171.88;5008759;28;20233;-72
2021/08/08 08:06:09;;;;;;;1.90;0.90;;;;;;;19.45;79.74;100168.22;4992043;28;20235;-73
2021/08/08 08:08:35;;;;;;;1.20;1.10;;;;;;;19.43;78.64;100172.75;5004704;28;20205;-73
2021/08/08 08:11:02;;;;;;;5.57;1.10;;;;;;;19.51;79.35;100171.38;4995708;28;20648;-73
2021/08/08 08:13:29;;;;;;;1.17;1.00;;;;;;;19.67;79.00;100167.53;4991461;28;20256;-72
2021/08/08 08:15:55;;;;;;;1.03;0.93;;;;;;;19.68;79.15;100166.59;5006067;28;20240;-72
2021/08/08 08:18:22;;;;;;;1.90;1.40;;;;;;;19.70;78.69;100163.84;4983503;28;20302;-71
2021/08/08 08:20:48;;;;;;;2.40;2.07;;;;;;;19.86;78.62;100158.31;5006660;28;20204;-72
2021/08/08 08:23:16;;;;;;;1.43;1.00;;;;;;;19.84;77.59;100170.78;4987325;28;20276;-72
2021/08/08 08:25:43;;;;;;;2.30;1.87;;;;;;;20.17;77.58;100161.34;4987890;28;20292;-72
2021/08/08 08:28:11;;;;;;;2.17;1.30;;;;;;;20.50;78.90;100165.94;5003762;28;20208;-71
2021/08/08 08:30:37;;;;;;;1.37;0.90;;;;;;;20.74;75.88;100165.09;5002604;28;20219;-72
2021/08/08 08:33:06;;;;;;;1.30;0.80;;;;;;;20.81;73.67;100163.66;5005088;28;20267;-71
2021/08/08 08:35:33;;;;;;;1.30;0.90;;;;;;;20.68;74.81;100171.69;4986074;28;20235;-72
2021/08/08 08:38:00;;;;;;;1.07;0.97;;;;;;;20.77;76.19;100170.16;5004480;28;20300;-72
2021/08/08 08:40:29;;;;;;;1.50;1.10;;;;;;;20.60;73.22;100172.25;4988789;28;20710;-72
2021/08/08 08:43:00;;;;;;;3.07;1.30;;;;;;;20.92;73.44;100181.41;5000686;28;20323;-71
2021/08/08 08:45:26;;;;;;;0.97;0.83;;;;;;;21.18;73.07;100169.63;4987226;28;20259;-72
2021/08/08 08:47:53;;;;;;;0.83;0.80;;;;;;;21.35;72.30;100175.41;4988669;28;20616;-72
2021/08/08 08:50:21;;;;;;;3.00;0.80;;;;;;;21.46;69.11;100177.22;4988750;28;21009;-72
2021/08/08 08:52:49;;;;;;;1.17;0.80;;;;;;;21.60;69.18;100176.13;5005235;28;20555;-71
2021/08/08 08:55:16;;;;;;;1.07;0.70;;;;;;;21.20;68.94;100181.91;5000421;28;20255;-72
2021/08/08 08:57:45;;;;;;;0.90;0.70;;;;;;;20.85;67.74;100182.81;4986219;28;20204;-72
2021/08/08 09:00:13;;;;;;;1.23;0.73;;;;;;;20.64;68.94;100193.25;5004295;28;20224;-71
2021/08/08 09:02:42;;;;;;;0.83;0.77;;;;;;;20.87;71.93;100181.72;4984679;28;20228;-72
2021/08/08 09:05:10;;;;;;;1.43;0.60;;;;;;;21.01;69.34;100191.28;5002984;28;20222;-72
2021/08/08 09:07:37;;;;;;;1.33;0.60;;;;;;;21.05;67.36;100199.84;5004846;28;20200;-72
2021/08/08 09:10:10;;;;;;;2.10;0.77;;;;;;;21.36;67.62;100193.00;4984507;28;20294;-72
2021/08/08 09:12:37;;;;;;;1.10;0.80;;;;;;;21.63;66.93;100205.09;5007337;28;20698;-71
2021/08/08 09:15:07;;;;;;;1.33;0.90;;;;;;;21.67;66.52;100204.72;5000816;28;20204;-72
2021/08/08 09:17:42;;;;;;;1.90;0.80;;;;;;;21.86;65.06;100217.38;4991553;28;20205;-72
2021/08/08 09:20:35;;;;;;;1.10;0.97;;;;;;;21.83;64.22;100222.06;5002641;28;20231;-72
2021/08/08 09:23:11;;;;;;;2.17;0.93;;;;;;;21.67;66.40;100218.00;5003647;28;20227;-72
2021/08/08 09:25:58;;;;;;;0.80;0.80;;;;;;;21.79;64.80;100220.63;4985302;28;20284;-72
2021/08/08 09:28:44;;;;;;;1.47;0.80;;;;;;;21.41;64.32;100217.34;5004225;28;20248;-72
2021/08/08 09:31:40;;;;;;;0.57;0.50;;;;;;;21.17;64.57;100225.41;5012304;28;20188;-72
2021/08/08 09:34:25;;;;;;;2.80;0.80;;;;;;;21.09;64.10;100226.00;5005279;28;20335;-73
2021/08/08 09:36:52;;;;;;;1.43;0.83;;;;;;;20.98;65.14;100229.47;5009305;28;20232;-72
2021/08/08 09:39:33;;;;;;;0.57;0.50;;;;;;;20.87;65.63;100228.59;5007285;28;20913;-72
2021/08/08 09:42:23;;;;;;;1.07;0.77;;;;;;;21.06;64.73;100228.88;4992068;28;20228;-73
2021/08/08 09:44:52;;;;;;;1.70;0.70;;;;;;;21.20;65.20;100235.78;5003193;28;20208;-73
2021/08/08 09:47:20;;;;;;;1.23;1.00;;;;;;;21.07;64.59;100242.97;5003826;28;20209;-72
2021/08/08 09:49:59;;;;;;;1.37;0.87;;;;;;;20.86;63.26;100254.25;5012520;28;20634;-72
2021/08/08 09:52:25;;;;;;;1.07;0.60;;;;;;;20.90;64.01;100246.91;5007084;28;20731;-72
2021/08/08 09:54:52;;;;;;;1.03;0.70;;;;;;;20.99;62.56;100246.22;5005482;28;20219;-74
2021/08/08 09:57:18;;;;;;;0.80;0.80;;;;;;;21.09;63.73;100246.34;5006901;28;20215;-73
2021/08/08 09:59:48;;;;;;;1.90;0.93;;;;;;;21.27;61.19;100257.34;5007403;28;20302;-71
2021/08/08 10:02:20;;;;;;;2.13;1.07;;;;;;;21.57;61.38;100253.31;5006646;28;20751;-71
2021/08/08 10:04:47;;;;;;;4.17;1.13;;;;;;;21.73;60.26;100265.25;5012381;28;20209;-71
2021/08/08 10:07:15;;;;;;;0.70;0.70;;;;;;;21.70;61.45;100267.31;5008797;28;20215;-72
2021/08/08 10:09:43;;;;;;;0.73;0.50;;;;;;;21.97;60.81;100261.63;5005006;28;20204;-71
2021/08/08 10:12:21;;;;;;;0.70;0.70;;;;;;;22.40;62.73;100263.50;4992178;28;20557;-71
2021/08/08 10:14:52;;;;;;;0.90;0.77;;;;;;;22.68;59.03;100267.38;5008737;28;20204;-70
2021/08/08 10:17:20;;;;;;;1.50;0.70;;;;;;;22.39;57.01;100282.22;5007491;28;20204;-71
2021/08/08 10:19:55;;;;;;;0.80;0.70;;;;;;;22.09;58.47;100275.72;5005991;28;20224;-72
2021/08/08 10:22:24;;;;;;;0.83;0.60;;;;;;;22.18;58.48;100272.34;5003336;28;20220;-71
2021/08/08 10:24:55;;;;;;;1.07;0.73;;;;;;;21.93;57.26;100274.31;5004834;28;20289;-72
2021/08/08 10:27:22;;;;;;;0.77;0.77;;;;;;;21.69;58.69;100277.06;5007566;28;20226;-70
2021/08/08 10:29:50;;;;;;;0.73;0.73;;;;;;;21.84;59.63;100284.78;5004709;28;20693;-72
2021/08/08 10:32:17;;;;;;;0.83;0.73;;;;;;;22.44;59.72;100278.22;5004551;28;20278;-72
2021/08/08 10:34:45;;;;;;;0.80;0.60;;;;;;;22.83;59.24;100283.88;5004842;28;20782;-72
2021/08/08 10:37:12;;;;;;;0.70;0.70;;;;;;;23.12;56.69;100290.41;5006517;28;20203;-72
2021/08/08 10:39:49;;;;;;;0.60;0.60;;;;;;;23.31;56.89;100301.19;5005468;28;20730;-72
2021/08/08 10:42:17;;;;;;;1.33;0.70;;;;;;;23.14;55.04;100307.91;5002592;28;20328;-71
2021/08/08 10:44:51;;;;;;;1.25;0.77;;;;;;;23.17;55.11;100306.84;5003999;28;20210;-72
2021/08/08 10:47:28;;;;;;;0.60;0.60;;;;;;;22.88;56.78;100302.09;5008353;28;20215;-70
2021/08/08 10:50:08;;;;;;;0.60;0.60;;;;;;;23.15;57.72;100301.63;5002545;28;20204;-70
2021/08/08 10:52:48;;;;;;;0.80;0.80;;;;;;;23.44;56.13;100300.97;5002981;28;20235;-72
2021/08/08 10:55:27;;;;;;;0.95;0.60;;;;;;;23.70;54.98;100297.91;5006346;28;20287;-73
2021/08/08 10:58:17;;;;;;;0.70;0.65;;;;;;;23.59;53.04;100310.31;4985954;28;20308;-72
2021/08/08 11:00:55;;;;;;;1.92;0.90;;;;;;;23.19;55.77;100312.84;5004693;28;20290;-72
2021/08/08 11:03:24;;;;;;;0.95;0.80;;;;;;;22.82;54.83;100318.56;5002510;28;20267;-72
2021/08/08 11:05:51;;;;;;;1.00;0.70;;;;;;;22.52;55.89;100309.47;4988243;28;20209;-72
2021/08/08 11:08:22;;;;;;;1.15;0.60;;;;;;;22.40;56.89;100319.25;5008990;28;20206;-72
2021/08/08 11:10:49;;;;;;;1.25;0.90;;;;;;;22.50;56.57;100309.59;5008194;28;20251;-71
2021/08/08 11:13:20;;;;;;;1.65;0.70;;;;;;;22.45;57.62;100311.78;5002191;28;20713;-72
2021/08/08 11:15:48;;;;;;;2.67;0.90;;;;;;;22.26;58.38;100320.34;5002299;28;20236;-71
2021/08/08 11:18:14;;;;;;;1.00;0.88;;;;;;;22.09;57.72;100321.72;5004492;28;20196;-71
2021/08/08 11:20:41;;;;;;;1.40;0.93;;;;;;;22.11;58.87;100314.47;4989250;28;20224;-72
2021/08/08 11:23:10;;;;;;;0.65;0.65;;;;;;;22.15;58.98;100309.75;5005805;28;20577;-71
2021/08/08 11:25:38;;;;;;;0.70;0.70;;;;;;;22.67;58.29;100318.84;5002085;28;20767;-71
2021/08/08 11:28:05;;;;;;;2.08;0.88;;;;;;;22.96;58.58;100312.94;5006355;28;20600;-72
2021/08/08 11:30:39;;;;;;;1.17;0.80;;;;;;;22.99;57.80;100317.13;5002601;28;20292;-71
2021/08/08 11:33:06;;;;;;;1.65;0.73;;;;;;;22.93;57.97;100315.84;5006168;28;20248;-72
2021/08/08 11:35:32;;;;;;;1.17;0.88;;;;;;;22.72;55.12;100318.47;5004712;28;20328;-70
2021/08/08 11:37:59;;;;;;;1.00;0.95;;;;;;;22.65;57.73;100310.13;5005316;28;20208;-70